Cincinnati, OH (45245)

12:41 PM EST on January 31, 2015 (GMT -0500)
withamsville | Change Station
CLOSE
Current Station
Personal Weather Station
Location: Cincinnati, OH
Elevation: 912 ft
Nearby Weather Stations

Elev 912 ft 39.06 °N, 84.28 °W | Updated 13 seconds ago

Clear
Clear
39.9 °F
Feels Like 37 °F
N
4.7
Wind Variable Wind from SSW
Gusts 4.7 mph

Today
High -- | Low -- °F
--% Chance of Precip.
Yesterday
High -- | Low -- °F
Precip. -- in
7:44 AM 5:56 PM
Waxing Gibbous, 90% visible
Pressure 30.33 in
Visibility 10.0 miles
Clouds Clear
Windchill 37 °F
Dew Point -0 °F
Humidity 18%
Rainfall 0.00 in
Snow Depth Not available.
UV 4 out of 12
Pollen .10 out of 12
Air Quality Not available.
Flu Activity Not available.
METAR KI69 311738Z AUTO 24011KT 10SM CLR 02/M06 A3033 RMK AO1

More Conditions Fewer Conditions

Pressure 30.33 in
Visibility 10.0 miles
Clouds Clear
Windchill 37 °F
Dew Point -0 °F
Humidity 18%
Rainfall 0.00 in
Snow Depth Not available.
UV 4 out of 12
Pollen .10 out of 12
Air Quality Not available.
Flu Activity Not available.
METAR KI69 311738Z AUTO 24011KT 10SM CLR 02/M06 A3033 RMK AO1

More Conditions Fewer Conditions

10-Day Weather Forecast

Almanac

Astronomy

Jan. 31, 2015 Rise Set
Actual Time
Civil Twilight
Nautical Twilight
Astronomical Twilight
Moon
Length of Visible Light
Length of Day
Tomorrow will be .
, % of the Moon is Illuminated

Today's Extremes

State Highs State Lows

Community

WunderPhotos

Upload Photos

1,792,136 photos uploaded!

WunderBlogs® & News

Nearby

Air Quality

  Air Quality AQ Index Pollutant
Not available.

Snow Depth

Station Depth Elevation

Earthquake Activity

City Distance Mag. Time & Date
Minimum magnitude displayed is 2.5.

Coastal Water Temperatures

Place Temperature

Nearby Weather Stations